Date,TemperatureHighF,TemperatureAvgF,TemperatureLowF,DewpointHighF,DewpointAvgF,DewpointLowF,HumidityHigh,HumidityAvg,HumidityLow,PressureMaxIn,PressureMinIn,WindSpeedMaxMPH,WindSpeedAvgMPH,GustSpeedMaxMPH,PrecipitationSumIn
2014-1-1,52.9,40.9,35.9,40.6,33.3,30.3,82,74,63,30.07,29.90,18,8,18,0.00
2014-1-2,41.7,34.3,25.9,23.3,20.0,17.3,74,57,41,30.38,30.14,32,16,32,0.00
2014-1-3,50.4,38.9,27.1,28.3,24.6,20.7,78,58,35,30.35,29.91,23,12,23,0.00
2014-1-4,47.7,41.7,39.3,44.1,37.0,29.1,93,84,60,29.90,29.80,22,14,22,0.00
2014-1-5,49.2,33.0,29.6,35.0,22.4,18.1,77,65,53,30.09,29.67,36,21,41,0.00
2014-1-6,31.9,23.7,15.9,11.1,6.8,3.9,62,49,33,30.67,30.47,22,12,22,0.00
2014-1-7,46.0,34.5,22.7,16.5,13.4,10.3,63,44,28,30.47,30.22,20,9,24,0.00
2014-1-8,49.2,43.7,38.8,49.2,40.0,20.1,100,88,43,30.15,29.99,23,13,23,0.04
2014-1-9,48.4,47.1,44.8,48.4,47.0,44.0,100,100,97,30.09,29.85,13,5,13,0.01
2014-1-10,67.6,60.1,48.5,63.2,58.2,48.2,100,94,71,29.84,29.54,18,8,18,0.13
2014-1-11,66.6,53.3,43.5,40.5,33.0,26.4,78,50,22,30.00,29.70,22,7,22,0.00
2014-1-12,71.3,59.0,43.7,51.2,42.4,29.9,74,56,28,29.90,29.66,43,12,43,0.00
2014-1-13,62.1,55.2,42.3,57.3,31.8,20.7,89,44,21,29.95,29.65,31,16,31,0.00
2014-1-14,63.3,49.0,34.1,36.5,26.1,19.4,70,43,24,30.24,29.89,31,12,31,0.00
2014-1-15,55.5,45.2,36.6,29.0,24.2,19.1,58,44,31,30.30,29.96,17,10,17,0.00
2014-1-16,62.6,50.8,37.1,34.7,30.2,19.9,74,48,25,30.05,29.89,22,9,22,0.00
2014-1-17,53.1,47.5,41.7,21.6,17.2,12.1,41,30,21,30.26,30.07,25,12,25,0.00
2014-1-18,66.5,55.8,35.7,33.0,28.0,19.8,61,36,26,30.08,29.92,18,3,18,0.00
2014-1-19,54.9,47.0,40.2,29.3,27.7,26.5,58,47,36,30.19,30.07,13,3,13,0.00
2014-1-20,71.5,56.8,42.9,42.0,33.0,26.3,67,43,24,30.11,29.71,29,13,29,0.00
2014-1-21,52.7,44.7,39.5,26.9,19.7,13.5,46,37,27,30.32,30.12,30,18,30,0.00
2014-1-22,59.2,45.5,33.8,30.3,25.3,18.8,65,47,29,30.03,29.91,14,6,14,0.00
2014-1-23,45.7,34.1,25.6,24.5,11.9,1.6,55,40,31,30.66,30.06,32,23,32,0.00
2014-1-24,41.8,30.2,20.4,16.6,7.1,1.9,53,38,24,30.65,30.12,18,10,18,0.00
2014-1-25,64.8,47.0,27.8,35.4,26.7,16.6,73,47,30,30.11,29.83,16,4,16,0.00
2014-1-26,74.3,59.1,49.2,40.4,35.9,29.9,61,44,23,29.83,29.50,17,9,17,0.00
2014-1-27,53.4,37.2,26.0,33.1,9.7,-1.4,55,33,21,30.24,29.67,36,25,36,0.00
2014-1-28,33.7,26.7,23.1,12.2,4.2,0.3,47,38,32,30.41,30.23,25,18,25,0.00
2014-1-29,46.4,33.8,20.9,17.1,14.9,12.6,71,48,28,30.36,30.07,20,10,20,0.00
2014-1-30,59.3,45.3,31.1,47.6,32.9,15.6,90,62,50,30.05,29.70,37,19,37,0.04
2014-1-31,73.8,62.5,50.5,53.9,52.6,48.0,94,72,49,29.75,29.62,23,15,23,0.00
2014-2-1,64.6,51.5,46.2,59.8,42.3,37.3,88,71,59,29.78,29.61,23,11,23,0.00
2014-2-2,40.6,35.5,34.3,32.0,30.3,28.6,90,81,66,30.07,29.90,26,15,26,0.06
2014-2-3,43.7,36.8,30.9,36.7,31.6,26.7,88,82,71,30.18,29.87,14,9,14,0.00
2014-2-4,48.6,42.9,38.6,42.9,39.0,33.3,96,86,76,30.04,29.76,26,10,26,0.01
2014-2-5,38.2,30.2,25.8,32.9,20.6,16.8,81,67,59,30.44,30.05,32,20,32,0.01
2014-2-6,26.5,22.3,18.7,24.0,17.7,11.2,93,82,69,30.50,30.33,24,11,24,0.37
2014-2-7,32.5,28.5,23.6,29.7,25.5,20.6,90,88,87,30.31,30.15,11,2,11,0.00
2014-2-8,55.6,41.3,31.9,42.0,36.3,29.8,97,84,58,30.12,29.87,18,10,18,0.00
2014-2-9,49.6,43.8,40.4,44.5,41.5,38.5,100,92,79,30.00,29.90,14,6,14,0.00
2014-2-10,37.2,33.7,30.7,35.6,32.0,29.2,95,94,93,30.18,30.02,24,17,24,0.01
2014-2-11,34.6,31.8,28.9,29.7,27.6,24.7,94,84,74,30.24,30.12,25,14,25,0.03
2014-2-12,48.3,39.7,32.6,33.9,30.4,26.4,84,70,56,30.13,29.94,18,9,18,0.00
2014-2-13,65.2,47.9,33.0,41.0,35.8,29.1,89,66,40,29.94,29.74,17,7,17,0.00
2014-2-14,69.5,55.9,43.2,41.4,34.3,23.8,84,49,19,29.98,29.61,34,15,34,0.00
2014-2-15,68.8,55.0,40.3,38.1,33.1,28.2,66,45,26,30.02,29.86,19,8,19,0.00
2014-2-16,72.5,60.4,46.6,59.1,53.1,37.7,100,78,60,29.92,29.72,24,12,24,0.00
2014-2-17,72.1,64.4,54.2,59.3,38.4,25.1,95,47,18,30.01,29.72,32,13,32,0.00
2014-2-18,79.7,64.1,49.4,60.5,47.0,29.4,82,55,39,29.97,29.69,23,9,23,0.09
2014-2-19,69.5,64.4,60.8,62.4,61.1,58.4,97,89,78,29.77,29.58,28,12,28,0.00
2014-2-20,71.3,64.6,58.1,63.0,44.0,30.6,85,51,27,29.92,29.48,34,17,34,0.00
2014-2-28,65.3,63.2,59.5,53.8,53.3,52.4,78,70,63,29.75,29.71,17,7,17,0.00
2014-3-1,79.9,61.1,45.3,65.3,53.4,44.5,100,78,50,29.90,29.74,26,5,26,0.00
2014-3-2,70.2,32.8,23.8,64.9,30.2,21.6,94,90,73,30.10,29.85,30,14,31,0.00